sensor_id;sensor_type;location;lat;lon;timestamp;P1;durP1;ratioP1;P2;durP2;ratioP2
4313;SDS011;2170;48.794;9.182;2023-05-07T00:18:56;5.80;;;5.30;;
4313;SDS011;2170;48.794;9.182;2023-05-07T00:21:36;6.93;;;6.33;;
4313;SDS011;2170;48.794;9.182;2023-05-07T00:24:04;6.97;;;6.27;;
4313;SDS011;2170;48.794;9.182;2023-05-07T00:26:43;6.67;;;6.13;;
4313;SDS011;2170;48.794;9.182;2023-05-07T00:29:13;8.00;;;6.50;;
4313;SDS011;2170;48.794;9.182;2023-05-07T00:31:58;9.33;;;6.33;;
4313;SDS011;2170;48.794;9.182;2023-05-07T00:34:48;7.17;;;6.50;;
4313;SDS011;2170;48.794;9.182;2023-05-07T00:37:23;6.30;;;5.70;;
4313;SDS011;2170;48.794;9.182;2023-05-07T00:40:02;6.57;;;6.07;;
4313;SDS011;2170;48.794;9.182;2023-05-07T00:42:35;7.00;;;6.43;;
4313;SDS011;2170;48.794;9.182;2023-05-07T00:45:03;7.40;;;6.70;;
4313;SDS011;2170;48.794;9.182;2023-05-07T00:47:43;8.07;;;5.97;;
4313;SDS011;2170;48.794;9.182;2023-05-07T00:50:20;6.80;;;6.20;;
4313;SDS011;2170;48.794;9.182;2023-05-07T00:52:52;7.07;;;6.40;;
4313;SDS011;2170;48.794;9.182;2023-05-07T00:55:24;7.20;;;6.50;;
4313;SDS011;2170;48.794;9.182;2023-05-07T00:57:56;7.03;;;6.43;;
4313;SDS011;2170;48.794;9.182;2023-05-07T01:00:25;7.03;;;6.53;;
4313;SDS011;2170;48.794;9.182;2023-05-07T01:02:56;7.37;;;6.20;;
4313;SDS011;2170;48.794;9.182;2023-05-07T01:05:35;11.60;;;6.60;;
4313;SDS011;2170;48.794;9.182;2023-05-07T01:08:08;7.00;;;6.40;;
4313;SDS011;2170;48.794;9.182;2023-05-07T01:10:37;7.40;;;6.70;;
4313;SDS011;2170;48.794;9.182;2023-05-07T01:13:14;7.47;;;6.77;;
4313;SDS011;2170;48.794;9.182;2023-05-07T01:15:48;7.00;;;6.43;;
4313;SDS011;2170;48.794;9.182;2023-05-07T01:18:28;7.73;;;6.80;;
4313;SDS011;2170;48.794;9.182;2023-05-07T01:21:04;7.20;;;6.50;;
4313;SDS011;2170;48.794;9.182;2023-05-07T01:24:09;7.07;;;6.47;;
4313;SDS011;2170;48.794;9.182;2023-05-07T01:26:43;6.67;;;6.13;;
4313;SDS011;2170;48.794;9.182;2023-05-07T01:29:24;6.53;;;5.83;;
4313;SDS011;2170;48.794;9.182;2023-05-07T01:31:59;7.17;;;6.50;;
4313;SDS011;2170;48.794;9.182;2023-05-07T01:34:31;6.37;;;5.77;;
4313;SDS011;2170;48.794;9.182;2023-05-07T01:37:02;6.50;;;6.00;;
4313;SDS011;2170;48.794;9.182;2023-05-07T01:39:31;7.00;;;6.30;;
4313;SDS011;2170;48.794;9.182;2023-05-07T01:42:07;7.70;;;5.83;;
4313;SDS011;2170;48.794;9.182;2023-05-07T01:44:42;7.70;;;7.00;;
4313;SDS011;2170;48.794;9.182;2023-05-07T01:47:16;7.53;;;6.43;;
4313;SDS011;2170;48.794;9.182;2023-05-07T01:49:46;6.10;;;5.70;;
4313;SDS011;2170;48.794;9.182;2023-05-07T01:52:14;6.27;;;5.77;;
4313;SDS011;2170;48.794;9.182;2023-05-07T01:54:47;6.33;;;5.73;;
4313;SDS011;2170;48.794;9.182;2023-05-07T01:57:15;6.23;;;5.60;;
4313;SDS011;2170;48.794;9.182;2023-05-07T01:59:56;5.70;;;5.20;;
4313;SDS011;2170;48.794;9.182;2023-05-07T02:02:27;5.90;;;5.40;;
4313;SDS011;2170;48.794;9.182;2023-05-07T02:04:59;6.60;;;6.00;;
4313;SDS011;2170;48.794;9.182;2023-05-07T02:07:27;6.13;;;5.63;;
4313;SDS011;2170;48.794;9.182;2023-05-07T02:09:57;7.60;;;5.63;;
4313;SDS011;2170;48.794;9.182;2023-05-07T02:12:27;6.27;;;5.77;;
4313;SDS011;2170;48.794;9.182;2023-05-07T02:14:55;6.10;;;5.60;;
4313;SDS011;2170;48.794;9.182;2023-05-07T02:17:23;5.80;;;5.23;;
4313;SDS011;2170;48.794;9.182;2023-05-07T02:19:59;7.30;;;6.53;;
4313;SDS011;2170;48.794;9.182;2023-05-07T02:22:29;6.77;;;6.27;;
4313;SDS011;2170;48.794;9.182;2023-05-07T02:25:13;6.00;;;5.60;;
4313;SDS011;2170;48.794;9.182;2023-05-07T02:27:54;6.27;;;5.83;;
4313;SDS011;2170;48.794;9.182;2023-05-07T02:30:21;6.20;;;5.60;;
4313;SDS011;2170;48.794;9.182;2023-05-07T02:32:58;5.60;;;5.20;;
4313;SDS011;2170;48.794;9.182;2023-05-07T02:35:26;6.53;;;5.57;;
4313;SDS011;2170;48.794;9.182;2023-05-07T02:38:04;5.70;;;5.30;;
4313;SDS011;2170;48.794;9.182;2023-05-07T02:40:34;6.13;;;5.70;;
4313;SDS011;2170;48.794;9.182;2023-05-07T02:43:13;5.77;;;5.23;;
4313;SDS011;2170;48.794;9.182;2023-05-07T02:45:44;5.07;;;4.77;;
4313;SDS011;2170;48.794;9.182;2023-05-07T02:48:15;6.90;;;6.30;;
4313;SDS011;2170;48.794;9.182;2023-05-07T02:50:42;6.67;;;6.07;;
4313;SDS011;2170;48.794;9.182;2023-05-07T02:53:10;5.83;;;5.37;;
4313;SDS011;2170;48.794;9.182;2023-05-07T02:55:47;5.70;;;5.30;;
4313;SDS011;2170;48.794;9.182;2023-05-07T02:58:21;9.00;;;6.77;;
4313;SDS011;2170;48.794;9.182;2023-05-07T03:00:54;6.30;;;5.70;;
4313;SDS011;2170;48.794;9.182;2023-05-07T03:03:22;6.07;;;5.57;;
4313;SDS011;2170;48.794;9.182;2023-05-07T03:05:56;6.20;;;5.70;;
4313;SDS011;2170;48.794;9.182;2023-05-07T03:08:24;6.50;;;5.90;;
4313;SDS011;2170;48.794;9.182;2023-05-07T03:10:57;6.83;;;6.20;;
4313;SDS011;2170;48.794;9.182;2023-05-07T03:13:31;6.40;;;5.80;;
4313;SDS011;2170;48.794;9.182;2023-05-07T03:16:03;6.37;;;5.77;;
4313;SDS011;2170;48.794;9.182;2023-05-07T03:18:31;6.90;;;5.87;;
4313;SDS011;2170;48.794;9.182;2023-05-07T03:21:02;7.10;;;6.10;;
4313;SDS011;2170;48.794;9.182;2023-05-07T03:23:32;6.00;;;5.53;;
4313;SDS011;2170;48.794;9.182;2023-05-07T03:26:07;7.10;;;6.60;;
4313;SDS011;2170;48.794;9.182;2023-05-07T03:28:36;6.70;;;6.00;;
4313;SDS011;2170;48.794;9.182;2023-05-07T03:31:09;6.80;;;6.20;;
4313;SDS011;2170;48.794;9.182;2023-05-07T03:33:50;7.70;;;5.97;;
4313;SDS011;2170;48.794;9.182;2023-05-07T03:36:25;6.63;;;6.03;;
4313;SDS011;2170;48.794;9.182;2023-05-07T03:38:59;6.10;;;5.70;;
4313;SDS011;2170;48.794;9.182;2023-05-07T03:41:32;7.30;;;6.60;;
4313;SDS011;2170;48.794;9.182;2023-05-07T03:44:00;6.73;;;6.13;;
4313;SDS011;2170;48.794;9.182;2023-05-07T03:46:33;7.10;;;6.43;;
4313;SDS011;2170;48.794;9.182;2023-05-07T03:49:03;5.63;;;5.23;;
4313;SDS011;2170;48.794;9.182;2023-05-07T03:51:32;7.13;;;6.43;;
4313;SDS011;2170;48.794;9.182;2023-05-07T03:54:01;7.53;;;6.83;;
4313;SDS011;2170;48.794;9.182;2023-05-07T03:56:30;6.03;;;5.53;;
4313;SDS011;2170;48.794;9.182;2023-05-07T03:59:07;7.13;;;6.53;;
4313;SDS011;2170;48.794;9.182;2023-05-07T04:01:35;6.30;;;5.70;;
4313;SDS011;2170;48.794;9.182;2023-05-07T04:04:10;7.20;;;6.50;;
4313;SDS011;2170;48.794;9.182;2023-05-07T04:06:38;6.80;;;6.30;;
4313;SDS011;2170;48.794;9.182;2023-05-07T04:09:06;7.47;;;6.83;;
4313;SDS011;2170;48.794;9.182;2023-05-07T04:11:36;7.30;;;6.70;;
4313;SDS011;2170;48.794;9.182;2023-05-07T04:14:09;7.20;;;6.60;;
4313;SDS011;2170;48.794;9.182;2023-05-07T04:16:42;7.87;;;6.90;;
4313;SDS011;2170;48.794;9.182;2023-05-07T04:19:18;8.53;;;6.00;;
4313;SDS011;2170;48.794;9.182;2023-05-07T04:21:46;7.10;;;6.50;;
4313;SDS011;2170;48.794;9.182;2023-05-07T04:24:14;6.83;;;6.33;;
4313;SDS011;2170;48.794;9.182;2023-05-07T04:26:45;6.83;;;6.23;;
4313;SDS011;2170;48.794;9.182;2023-05-07T04:29:20;8.73;;;7.17;;
4313;SDS011;2170;48.794;9.182;2023-05-07T04:31:49;7.43;;;6.83;;
4313;SDS011;2170;48.794;9.182;2023-05-07T04:34:21;7.30;;;6.50;;
4313;SDS011;2170;48.794;9.182;2023-05-07T04:36:51;7.70;;;6.23;;
4313;SDS011;2170;48.794;9.182;2023-05-07T04:39:19;7.80;;;7.20;;
4313;SDS011;2170;48.794;9.182;2023-05-07T04:41:51;9.73;;;7.90;;
4313;SDS011;2170;48.794;9.182;2023-05-07T04:44:31;7.80;;;7.20;;
4313;SDS011;2170;48.794;9.182;2023-05-07T04:47:03;7.90;;;7.10;;
4313;SDS011;2170;48.794;9.182;2023-05-07T04:49:33;7.23;;;6.73;;
4313;SDS011;2170;48.794;9.182;2023-05-07T04:52:01;7.53;;;6.93;;
4313;SDS011;2170;48.794;9.182;2023-05-07T04:54:33;7.07;;;6.57;;
4313;SDS011;2170;48.794;9.182;2023-05-07T04:57:03;7.67;;;7.07;;
4313;SDS011;2170;48.794;9.182;2023-05-07T04:59:38;7.60;;;7.00;;
4313;SDS011;2170;48.794;9.182;2023-05-07T05:02:10;8.90;;;8.13;;
4313;SDS011;2170;48.794;9.182;2023-05-07T05:04:38;8.20;;;7.40;;
4313;SDS011;2170;48.794;9.182;2023-05-07T05:07:08;8.00;;;7.30;;
4313;SDS011;2170;48.794;9.182;2023-05-07T05:09:36;7.23;;;6.63;;
4313;SDS011;2170;48.794;9.182;2023-05-07T05:12:17;7.40;;;6.80;;
4313;SDS011;2170;48.794;9.182;2023-05-07T05:14:51;8.27;;;7.47;;
4313;SDS011;2170;48.794;9.182;2023-05-07T05:17:22;7.97;;;6.80;;
4313;SDS011;2170;48.794;9.182;2023-05-07T05:20:02;8.23;;;7.50;;
4313;SDS011;2170;48.794;9.182;2023-05-07T05:22:34;8.43;;;7.63;;
4313;SDS011;2170;48.794;9.182;2023-05-07T05:25:10;8.37;;;7.73;;
4313;SDS011;2170;48.794;9.182;2023-05-07T05:27:40;8.47;;;7.50;;
4313;SDS011;2170;48.794;9.182;2023-05-07T05:30:20;8.10;;;7.30;;
4313;SDS011;2170;48.794;9.182;2023-05-07T05:32:49;8.00;;;7.40;;
4313;SDS011;2170;48.794;9.182;2023-05-07T05:35:23;8.77;;;8.00;;
4313;SDS011;2170;48.794;9.182;2023-05-07T05:37:56;9.33;;;8.50;;
4313;SDS011;2170;48.794;9.182;2023-05-07T05:40:28;9.93;;;8.20;;
4313;SDS011;2170;48.794;9.182;2023-05-07T05:42:59;10.20;;;7.60;;
4313;SDS011;2170;48.794;9.182;2023-05-07T05:45:31;8.93;;;8.13;;
4313;SDS011;2170;48.794;9.182;2023-05-07T05:48:08;7.73;;;6.87;;
4313;SDS011;2170;48.794;9.182;2023-05-07T05:50:43;8.20;;;7.50;;
4313;SDS011;2170;48.794;9.182;2023-05-07T05:53:15;9.00;;;8.20;;
4313;SDS011;2170;48.794;9.182;2023-05-07T05:55:44;8.07;;;7.40;;
4313;SDS011;2170;48.794;9.182;2023-05-07T05:58:23;8.63;;;7.93;;
4313;SDS011;2170;48.794;9.182;2023-05-07T06:00:54;9.00;;;8.20;;
4313;SDS011;2170;48.794;9.182;2023-05-07T06:03:28;8.50;;;7.83;;
4313;SDS011;2170;48.794;9.182;2023-05-07T06:05:59;9.40;;;8.50;;
4313;SDS011;2170;48.794;9.182;2023-05-07T06:08:29;8.20;;;7.47;;
4313;SDS011;2170;48.794;9.182;2023-05-07T06:11:03;8.50;;;7.83;;
4313;SDS011;2170;48.794;9.182;2023-05-07T06:13:31;10.13;;;9.13;;
4313;SDS011;2170;48.794;9.182;2023-05-07T06:16:02;9.43;;;8.73;;
4313;SDS011;2170;48.794;9.182;2023-05-07T06:18:38;16.60;;;9.20;;
4313;SDS011;2170;48.794;9.182;2023-05-07T06:21:16;8.73;;;8.03;;
4313;SDS011;2170;48.794;9.182;2023-05-07T06:23:49;8.63;;;7.97;;
4313;SDS011;2170;48.794;9.182;2023-05-07T06:26:20;9.07;;;8.17;;
4313;SDS011;2170;48.794;9.182;2023-05-07T06:28:51;8.70;;;8.00;;
4313;SDS011;2170;48.794;9.182;2023-05-07T06:31:21;8.27;;;7.57;;
4313;SDS011;2170;48.794;9.182;2023-05-07T06:33:54;9.33;;;8.47;;
4313;SDS011;2170;48.794;9.182;2023-05-07T06:36:36;7.70;;;7.10;;
4313;SDS011;2170;48.794;9.182;2023-05-07T06:39:06;8.40;;;7.70;;
4313;SDS011;2170;48.794;9.182;2023-05-07T06:41:50;8.50;;;7.60;;
4313;SDS011;2170;48.794;9.182;2023-05-07T06:44:22;10.83;;;8.50;;
4313;SDS011;2170;48.794;9.182;2023-05-07T06:47:03;8.33;;;7.60;;
4313;SDS011;2170;48.794;9.182;2023-05-07T06:49:37;8.47;;;7.60;;
4313;SDS011;2170;48.794;9.182;2023-05-07T06:52:06;8.90;;;8.10;;
4313;SDS011;2170;48.794;9.182;2023-05-07T06:54:41;9.07;;;8.10;;
4313;SDS011;2170;48.794;9.182;2023-05-07T06:57:12;7.47;;;6.87;;
4313;SDS011;2170;48.794;9.182;2023-05-07T06:59:40;7.37;;;6.77;;
4313;SDS011;2170;48.794;9.182;2023-05-07T07:02:15;7.20;;;6.60;;
4313;SDS011;2170;48.794;9.182;2023-05-07T07:04:45;7.33;;;6.73;;
4313;SDS011;2170;48.794;9.182;2023-05-07T07:07:16;7.80;;;7.10;;
4313;SDS011;2170;48.794;9.182;2023-05-07T07:09:49;7.70;;;7.10;;
4313;SDS011;2170;48.794;9.182;2023-05-07T07:12:30;7.50;;;6.90;;
4313;SDS011;2170;48.794;9.182;2023-05-07T07:15:06;7.47;;;6.90;;
4313;SDS011;2170;48.794;9.182;2023-05-07T07:18:06;8.00;;;7.40;;
4313;SDS011;2170;48.794;9.182;2023-05-07T07:20:44;7.90;;;7.20;;
4313;SDS011;2170;48.794;9.182;2023-05-07T07:23:14;7.57;;;6.90;;
4313;SDS011;2170;48.794;9.182;2023-05-07T07:25:44;7.20;;;6.27;;
4313;SDS011;2170;48.794;9.182;2023-05-07T07:28:27;7.30;;;6.70;;
4313;SDS011;2170;48.794;9.182;2023-05-07T07:30:56;8.50;;;7.80;;
4313;SDS011;2170;48.794;9.182;2023-05-07T07:33:30;7.73;;;7.03;;
4313;SDS011;2170;48.794;9.182;2023-05-07T07:36:10;7.90;;;7.20;;
4313;SDS011;2170;48.794;9.182;2023-05-07T07:38:43;8.50;;;6.80;;
4313;SDS011;2170;48.794;9.182;2023-05-07T07:41:22;8.00;;;7.40;;
4313;SDS011;2170;48.794;9.182;2023-05-07T07:43:59;9.23;;;8.27;;
4313;SDS011;2170;48.794;9.182;2023-05-07T07:46:29;8.23;;;7.63;;
4313;SDS011;2170;48.794;9.182;2023-05-07T07:49:04;8.20;;;7.40;;
4313;SDS011;2170;48.794;9.182;2023-05-07T07:51:38;8.93;;;8.30;;
4313;SDS011;2170;48.794;9.182;2023-05-07T07:54:21;6.77;;;6.27;;
4313;SDS011;2170;48.794;9.182;2023-05-07T07:57:03;6.23;;;5.60;;
4313;SDS011;2170;48.794;9.182;2023-05-07T07:59:36;6.47;;;5.90;;
4313;SDS011;2170;48.794;9.182;2023-05-07T08:02:11;5.00;;;4.60;;
4313;SDS011;2170;48.794;9.182;2023-05-07T08:04:41;5.73;;;5.33;;
4313;SDS011;2170;48.794;9.182;2023-05-07T08:07:11;5.57;;;5.20;;
4313;SDS011;2170;48.794;9.182;2023-05-07T08:09:43;5.33;;;4.90;;
4313;SDS011;2170;48.794;9.182;2023-05-07T08:12:15;5.30;;;4.80;;
4313;SDS011;2170;48.794;9.182;2023-05-07T08:14:46;4.30;;;4.00;;
4313;SDS011;2170;48.794;9.182;2023-05-07T08:17:15;4.87;;;4.57;;
4313;SDS011;2170;48.794;9.182;2023-05-07T08:19:47;5.27;;;4.70;;
4313;SDS011;2170;48.794;9.182;2023-05-07T08:22:17;5.50;;;4.10;;
4313;SDS011;2170;48.794;9.182;2023-05-07T08:24:46;5.03;;;4.63;;
4313;SDS011;2170;48.794;9.182;2023-05-07T08:27:15;4.40;;;4.10;;
4313;SDS011;2170;48.794;9.182;2023-05-07T08:29:51;4.40;;;4.10;;
4313;SDS011;2170;48.794;9.182;2023-05-07T08:32:20;4.77;;;4.37;;
4313;SDS011;2170;48.794;9.182;2023-05-07T08:34:52;4.00;;;3.70;;
4313;SDS011;2170;48.794;9.182;2023-05-07T08:37:21;3.60;;;3.10;;
4313;SDS011;2170;48.794;9.182;2023-05-07T08:39:51;4.30;;;4.00;;
4313;SDS011;2170;48.794;9.182;2023-05-07T08:42:22;3.93;;;3.63;;
4313;SDS011;2170;48.794;9.182;2023-05-07T08:44:54;4.13;;;3.83;;
4313;SDS011;2170;48.794;9.182;2023-05-07T08:47:26;4.37;;;4.03;;
4313;SDS011;2170;48.794;9.182;2023-05-07T08:50:04;5.43;;;4.80;;
4313;SDS011;2170;48.794;9.182;2023-05-07T08:52:35;5.53;;;5.03;;
4313;SDS011;2170;48.794;9.182;2023-05-07T08:55:05;8.27;;;7.47;;
4313;SDS011;2170;48.794;9.182;2023-05-07T08:57:37;8.63;;;7.93;;
4313;SDS011;2170;48.794;9.182;2023-05-07T09:00:06;7.20;;;6.50;;
4313;SDS011;2170;48.794;9.182;2023-05-07T09:02:38;4.40;;;4.00;;
4313;SDS011;2170;48.794;9.182;2023-05-07T09:05:12;4.60;;;4.23;;
4313;SDS011;2170;48.794;9.182;2023-05-07T09:07:44;3.63;;;3.40;;
4313;SDS011;2170;48.794;9.182;2023-05-07T09:10:35;3.50;;;3.30;;
4313;SDS011;2170;48.794;9.182;2023-05-07T09:13:06;3.63;;;3.30;;
4313;SDS011;2170;48.794;9.182;2023-05-07T09:15:40;3.37;;;3.17;;
4313;SDS011;2170;48.794;9.182;2023-05-07T09:18:13;3.60;;;3.30;;
4313;SDS011;2170;48.794;9.182;2023-05-07T09:20:46;4.03;;;3.63;;
4313;SDS011;2170;48.794;9.182;2023-05-07T09:23:17;4.40;;;3.83;;
4313;SDS011;2170;48.794;9.182;2023-05-07T09:25:48;3.50;;;2.43;;
4313;SDS011;2170;48.794;9.182;2023-05-07T09:28:24;2.67;;;2.57;;
4313;SDS011;2170;48.794;9.182;2023-05-07T09:30:55;3.10;;;2.90;;
4313;SDS011;2170;48.794;9.182;2023-05-07T09:33:26;3.40;;;3.10;;
4313;SDS011;2170;48.794;9.182;2023-05-07T09:35:58;3.00;;;2.80;;
4313;SDS011;2170;48.794;9.182;2023-05-07T09:38:27;4.67;;;2.70;;
4313;SDS011;2170;48.794;9.182;2023-05-07T09:41:06;3.70;;;2.40;;
4313;SDS011;2170;48.794;9.182;2023-05-07T09:43:40;3.73;;;3.43;;
4313;SDS011;2170;48.794;9.182;2023-05-07T09:46:11;3.60;;;3.30;;
4313;SDS011;2170;48.794;9.182;2023-05-07T09:48:42;3.00;;;2.63;;
4313;SDS011;2170;48.794;9.182;2023-05-07T09:51:15;3.03;;;2.83;;
4313;SDS011;2170;48.794;9.182;2023-05-07T09:53:49;2.87;;;2.67;;
4313;SDS011;2170;48.794;9.182;2023-05-07T09:56:25;2.53;;;2.37;;
4313;SDS011;2170;48.794;9.182;2023-05-07T09:58:53;2.57;;;2.43;;
4313;SDS011;2170;48.794;9.182;2023-05-07T10:01:29;2.93;;;2.50;;
4313;SDS011;2170;48.794;9.182;2023-05-07T10:04:08;2.80;;;2.60;;
4313;SDS011;2170;48.794;9.182;2023-05-07T10:06:38;3.50;;;2.40;;
4313;SDS011;2170;48.794;9.182;2023-05-07T10:09:13;2.60;;;2.50;;
4313;SDS011;2170;48.794;9.182;2023-05-07T10:11:51;2.67;;;2.50;;
4313;SDS011;2170;48.794;9.182;2023-05-07T10:14:21;2.97;;;2.70;;
4313;SDS011;2170;48.794;9.182;2023-05-07T10:17:00;2.60;;;2.50;;
4313;SDS011;2170;48.794;9.182;2023-05-07T10:19:30;2.60;;;2.50;;
4313;SDS011;2170;48.794;9.182;2023-05-07T10:22:01;2.60;;;2.40;;
4313;SDS011;2170;48.794;9.182;2023-05-07T10:24:32;2.40;;;2.20;;
4313;SDS011;2170;48.794;9.182;2023-05-07T10:27:03;3.03;;;2.83;;
4313;SDS011;2170;48.794;9.182;2023-05-07T10:29:35;2.87;;;2.53;;
4313;SDS011;2170;48.794;9.182;2023-05-07T10:32:12;2.50;;;2.30;;
4313;SDS011;2170;48.794;9.182;2023-05-07T10:34:43;2.80;;;2.57;;
4313;SDS011;2170;48.794;9.182;2023-05-07T10:37:14;2.60;;;2.30;;
4313;SDS011;2170;48.794;9.182;2023-05-07T10:39:46;4.53;;;2.47;;
4313;SDS011;2170;48.794;9.182;2023-05-07T10:42:18;2.17;;;2.07;;
4313;SDS011;2170;48.794;9.182;2023-05-07T10:44:54;2.40;;;2.30;;
4313;SDS011;2170;48.794;9.182;2023-05-07T10:47:28;2.47;;;2.17;;
4313;SDS011;2170;48.794;9.182;2023-05-07T10:55:33;2.60;;;2.50;;
4313;SDS011;2170;48.794;9.182;2023-05-07T11:00:48;4.07;;;2.80;;
4313;SDS011;2170;48.794;9.182;2023-05-07T11:03:17;2.70;;;2.50;;
4313;SDS011;2170;48.794;9.182;2023-05-07T11:05:47;2.10;;;2.00;;
4313;SDS011;2170;48.794;9.182;2023-05-07T11:14:14;3.37;;;1.97;;
4313;SDS011;2170;48.794;9.182;2023-05-07T11:16:43;2.43;;;2.30;;
4313;SDS011;2170;48.794;9.182;2023-05-07T11:19:15;2.23;;;2.13;;
4313;SDS011;2170;48.794;9.182;2023-05-07T11:21:43;2.57;;;2.27;;
4313;SDS011;2170;48.794;9.182;2023-05-07T11:24:15;3.27;;;2.50;;
4313;SDS011;2170;48.794;9.182;2023-05-07T11:26:47;2.50;;;2.40;;
4313;SDS011;2170;48.794;9.182;2023-05-07T11:29:27;3.27;;;2.50;;
4313;SDS011;2170;48.794;9.182;2023-05-07T11:31:56;3.07;;;2.27;;
4313;SDS011;2170;48.794;9.182;2023-05-07T11:34:27;4.40;;;2.30;;
4313;SDS011;2170;48.794;9.182;2023-05-07T11:37:01;3.60;;;2.60;;
4313;SDS011;2170;48.794;9.182;2023-05-07T11:39:34;3.13;;;2.93;;
4313;SDS011;2170;48.794;9.182;2023-05-07T11:42:08;2.90;;;2.70;;
4313;SDS011;2170;48.794;9.182;2023-05-07T11:44:59;3.60;;;2.90;;
4313;SDS011;2170;48.794;9.182;2023-05-07T11:47:42;2.10;;;2.00;;
4313;SDS011;2170;48.794;9.182;2023-05-07T11:50:15;3.80;;;2.70;;
4313;SDS011;2170;48.794;9.182;2023-05-07T11:52:53;2.70;;;2.50;;
4313;SDS011;2170;48.794;9.182;2023-05-07T11:55:24;3.40;;;2.93;;
4313;SDS011;2170;48.794;9.182;2023-05-07T11:57:58;3.50;;;3.07;;
4313;SDS011;2170;48.794;9.182;2023-05-07T12:00:31;3.20;;;3.00;;
4313;SDS011;2170;48.794;9.182;2023-05-07T12:03:03;3.20;;;2.97;;
4313;SDS011;2170;48.794;9.182;2023-05-07T12:05:33;3.50;;;3.30;;
4313;SDS011;2170;48.794;9.182;2023-05-07T12:08:03;3.60;;;3.00;;
4313;SDS011;2170;48.794;9.182;2023-05-07T12:10:34;7.60;;;3.77;;
4313;SDS011;2170;48.794;9.182;2023-05-07T12:13:04;3.87;;;3.57;;
4313;SDS011;2170;48.794;9.182;2023-05-07T12:15:45;4.53;;;3.90;;
4313;SDS011;2170;48.794;9.182;2023-05-07T12:18:18;4.30;;;4.00;;
4313;SDS011;2170;48.794;9.182;2023-05-07T12:20:47;4.40;;;4.10;;
4313;SDS011;2170;48.794;9.182;2023-05-07T12:23:17;5.23;;;4.07;;
4313;SDS011;2170;48.794;9.182;2023-05-07T12:25:46;5.20;;;4.70;;
4313;SDS011;2170;48.794;9.182;2023-05-07T12:28:17;5.30;;;4.10;;
4313;SDS011;2170;48.794;9.182;2023-05-07T12:30:48;4.40;;;3.90;;
4313;SDS011;2170;48.794;9.182;2023-05-07T12:33:24;4.47;;;4.07;;
4313;SDS011;2170;48.794;9.182;2023-05-07T12:35:54;4.70;;;4.20;;
4313;SDS011;2170;48.794;9.182;2023-05-07T12:38:22;5.83;;;4.43;;
4313;SDS011;2170;48.794;9.182;2023-05-07T12:40:58;5.43;;;3.80;;
4313;SDS011;2170;48.794;9.182;2023-05-07T12:43:26;4.87;;;4.23;;
4313;SDS011;2170;48.794;9.182;2023-05-07T12:45:56;7.37;;;4.10;;
4313;SDS011;2170;48.794;9.182;2023-05-07T12:48:25;4.67;;;4.27;;
4313;SDS011;2170;48.794;9.182;2023-05-07T12:50:54;6.63;;;3.50;;
4313;SDS011;2170;48.794;9.182;2023-05-07T12:53:25;3.73;;;3.37;;
4313;SDS011;2170;48.794;9.182;2023-05-07T12:55:57;3.40;;;3.07;;
4313;SDS011;2170;48.794;9.182;2023-05-07T12:58:26;4.57;;;2.03;;
4313;SDS011;2170;48.794;9.182;2023-05-07T13:00:54;3.23;;;2.30;;
4313;SDS011;2170;48.794;9.182;2023-05-07T13:03:26;2.70;;;1.60;;
4313;SDS011;2170;48.794;9.182;2023-05-07T13:05:55;1.50;;;1.10;;
4313;SDS011;2170;48.794;9.182;2023-05-07T13:08:28;2.50;;;1.30;;
4313;SDS011;2170;48.794;9.182;2023-05-07T13:10:56;1.80;;;1.70;;
4313;SDS011;2170;48.794;9.182;2023-05-07T13:13:27;1.77;;;1.50;;
4313;SDS011;2170;48.794;9.182;2023-05-07T13:15:56;2.43;;;2.07;;
4313;SDS011;2170;48.794;9.182;2023-05-07T13:18:28;4.53;;;3.90;;
4313;SDS011;2170;48.794;9.182;2023-05-07T13:20:56;3.83;;;2.70;;
4313;SDS011;2170;48.794;9.182;2023-05-07T13:23:26;3.63;;;3.33;;
4313;SDS011;2170;48.794;9.182;2023-05-07T13:25:57;3.20;;;2.37;;
4313;SDS011;2170;48.794;9.182;2023-05-07T13:28:24;3.00;;;2.50;;
4313;SDS011;2170;48.794;9.182;2023-05-07T13:30:52;6.40;;;2.77;;
4313;SDS011;2170;48.794;9.182;2023-05-07T13:33:20;4.17;;;3.10;;
4313;SDS011;2170;48.794;9.182;2023-05-07T13:35:50;3.27;;;2.53;;
4313;SDS011;2170;48.794;9.182;2023-05-07T13:38:19;2.90;;;2.50;;
4313;SDS011;2170;48.794;9.182;2023-05-07T13:40:47;2.50;;;2.30;;
4313;SDS011;2170;48.794;9.182;2023-05-07T13:43:15;3.63;;;2.87;;
4313;SDS011;2170;48.794;9.182;2023-05-07T13:45:44;2.60;;;2.40;;
4313;SDS011;2170;48.794;9.182;2023-05-07T13:48:14;3.67;;;2.80;;
4313;SDS011;2170;48.794;9.182;2023-05-07T13:50:45;3.17;;;2.50;;
4313;SDS011;2170;48.794;9.182;2023-05-07T13:53:14;2.83;;;2.60;;
4313;SDS011;2170;48.794;9.182;2023-05-07T13:55:43;7.53;;;2.57;;
4313;SDS011;2170;48.794;9.182;2023-05-07T13:58:12;3.57;;;3.30;;
4313;SDS011;2170;48.794;9.182;2023-05-07T14:00:41;3.33;;;2.80;;
4313;SDS011;2170;48.794;9.182;2023-05-07T14:03:09;6.30;;;3.13;;
4313;SDS011;2170;48.794;9.182;2023-05-07T14:05:37;4.90;;;3.10;;
4313;SDS011;2170;48.794;9.182;2023-05-07T14:08:09;3.00;;;2.70;;
4313;SDS011;2170;48.794;9.182;2023-05-07T14:10:42;3.10;;;2.53;;
4313;SDS011;2170;48.794;9.182;2023-05-07T14:13:10;2.00;;;1.90;;
4313;SDS011;2170;48.794;9.182;2023-05-07T14:15:39;2.40;;;2.17;;
4313;SDS011;2170;48.794;9.182;2023-05-07T14:18:14;2.60;;;2.20;;
4313;SDS011;2170;48.794;9.182;2023-05-07T14:20:46;6.93;;;2.93;;
4313;SDS011;2170;48.794;9.182;2023-05-07T14:23:15;2.77;;;2.57;;
4313;SDS011;2170;48.794;9.182;2023-05-07T14:25:47;4.97;;;2.50;;
4313;SDS011;2170;48.794;9.182;2023-05-07T14:28:18;2.87;;;2.67;;
4313;SDS011;2170;48.794;9.182;2023-05-07T14:30:50;3.03;;;2.50;;
4313;SDS011;2170;48.794;9.182;2023-05-07T14:33:18;3.30;;;3.10;;
4313;SDS011;2170;48.794;9.182;2023-05-07T14:35:49;3.63;;;3.33;;
4313;SDS011;2170;48.794;9.182;2023-05-07T14:38:17;4.17;;;3.73;;
4313;SDS011;2170;48.794;9.182;2023-05-07T14:40:47;4.00;;;3.70;;
4313;SDS011;2170;48.794;9.182;2023-05-07T14:43:15;3.97;;;3.67;;
4313;SDS011;2170;48.794;9.182;2023-05-07T14:45:43;3.80;;;3.50;;
4313;SDS011;2170;48.794;9.182;2023-05-07T14:48:19;2.83;;;2.70;;
4313;SDS011;2170;48.794;9.182;2023-05-07T14:50:53;3.00;;;2.70;;
4313;SDS011;2170;48.794;9.182;2023-05-07T14:53:25;3.97;;;3.47;;
4313;SDS011;2170;48.794;9.182;2023-05-07T14:55:55;3.40;;;3.10;;
4313;SDS011;2170;48.794;9.182;2023-05-07T14:58:27;3.23;;;2.60;;
4313;SDS011;2170;48.794;9.182;2023-05-07T15:00:56;3.00;;;2.80;;
4313;SDS011;2170;48.794;9.182;2023-05-07T15:03:25;3.60;;;3.30;;
4313;SDS011;2170;48.794;9.182;2023-05-07T15:06:07;4.03;;;3.73;;
4313;SDS011;2170;48.794;9.182;2023-05-07T15:08:39;4.50;;;3.93;;
4313;SDS011;2170;48.794;9.182;2023-05-07T15:11:13;3.87;;;3.57;;
4313;SDS011;2170;48.794;9.182;2023-05-07T15:13:47;6.93;;;4.70;;
4313;SDS011;2170;48.794;9.182;2023-05-07T15:16:17;5.57;;;3.73;;
4313;SDS011;2170;48.794;9.182;2023-05-07T15:18:45;6.60;;;3.67;;
4313;SDS011;2170;48.794;9.182;2023-05-07T15:21:22;4.23;;;4.00;;
4313;SDS011;2170;48.794;9.182;2023-05-07T15:23:52;3.63;;;3.40;;
4313;SDS011;2170;48.794;9.182;2023-05-07T15:26:25;3.87;;;3.50;;
4313;SDS011;2170;48.794;9.182;2023-05-07T15:29:00;6.33;;;3.60;;
4313;SDS011;2170;48.794;9.182;2023-05-07T15:31:35;3.67;;;3.37;;
4313;SDS011;2170;48.794;9.182;2023-05-07T15:34:08;4.20;;;3.90;;
4313;SDS011;2170;48.794;9.182;2023-05-07T15:36:36;3.90;;;3.63;;
4313;SDS011;2170;48.794;9.182;2023-05-07T15:39:09;4.73;;;4.30;;
4313;SDS011;2170;48.794;9.182;2023-05-07T15:41:47;4.13;;;3.83;;
4313;SDS011;2170;48.794;9.182;2023-05-07T15:44:20;3.70;;;3.50;;
4313;SDS011;2170;48.794;9.182;2023-05-07T15:46:52;3.63;;;3.43;;
4313;SDS011;2170;48.794;9.182;2023-05-07T15:49:24;4.43;;;4.03;;
4313;SDS011;2170;48.794;9.182;2023-05-07T15:51:57;4.17;;;3.87;;
4313;SDS011;2170;48.794;9.182;2023-05-07T15:54:26;4.47;;;4.07;;
4313;SDS011;2170;48.794;9.182;2023-05-07T15:56:57;3.97;;;3.77;;
4313;SDS011;2170;48.794;9.182;2023-05-07T15:59:29;4.30;;;3.97;;
4313;SDS011;2170;48.794;9.182;2023-05-07T16:02:01;4.13;;;3.83;;
4313;SDS011;2170;48.794;9.182;2023-05-07T16:04:34;4.67;;;4.33;;
4313;SDS011;2170;48.794;9.182;2023-05-07T16:07:14;4.23;;;3.90;;
4313;SDS011;2170;48.794;9.182;2023-05-07T16:09:47;4.67;;;4.27;;
4313;SDS011;2170;48.794;9.182;2023-05-07T16:12:21;4.70;;;4.33;;
4313;SDS011;2170;48.794;9.182;2023-05-07T16:14:55;3.93;;;3.60;;
4313;SDS011;2170;48.794;9.182;2023-05-07T16:17:27;5.17;;;4.77;;
4313;SDS011;2170;48.794;9.182;2023-05-07T16:19:59;5.37;;;4.87;;